createdAt,value
2022-08-02T00:00:34.127Z,5.85
2022-08-02T00:03:00.877Z,6.43
2022-08-02T00:05:27.436Z,5.60
2022-08-02T00:07:53.904Z,5.88
2022-08-02T00:10:20.679Z,5.18
2022-08-02T00:12:47.262Z,4.88
2022-08-02T00:15:16.042Z,4.70
2022-08-02T00:17:43.795Z,6.07
2022-08-02T00:20:11.952Z,5.80
2022-08-02T00:22:38.459Z,5.70
2022-08-02T00:25:05.428Z,7.60
2022-08-02T00:27:32.012Z,6.03
2022-08-02T00:29:58.611Z,6.38
2022-08-02T00:32:25.313Z,5.00
2022-08-02T00:34:52.188Z,5.03
2022-08-02T00:37:18.753Z,4.65
2022-08-02T00:39:46.095Z,4.32
2022-08-02T00:42:15.312Z,4.88
2022-08-02T00:44:42.090Z,5.45
2022-08-02T00:47:08.697Z,4.43
2022-08-02T00:49:35.280Z,4.45
2022-08-02T00:52:01.834Z,6.10
2022-08-02T00:54:28.444Z,7.38
2022-08-02T00:56:54.966Z,5.88
2022-08-02T00:59:21.609Z,5.95
2022-08-02T01:01:54.517Z,4.63
2022-08-02T01:04:30.647Z,6.53
2022-08-02T01:06:59.306Z,6.63
2022-08-02T01:09:26.122Z,4.25
2022-08-02T01:11:52.870Z,5.78
2022-08-02T01:14:20.289Z,3.15
2022-08-02T01:16:54.332Z,5.72
2022-08-02T01:19:35.881Z,3.47
2022-08-02T01:23:00.008Z,5.68
2022-08-02T01:25:40.630Z,4.65
2022-08-02T01:28:25.073Z,4.40
2022-08-02T01:31:10.976Z,7.03
2022-08-02T01:33:44.251Z,7.65
2022-08-02T01:36:13.513Z,6.88
2022-08-02T01:38:45.095Z,3.58
2022-08-02T01:41:18.213Z,5.05
2022-08-02T01:43:46.624Z,6.40
2022-08-02T01:46:15.183Z,5.22
2022-08-02T01:48:43.978Z,4.53
2022-08-02T01:51:13.220Z,6.38
2022-08-02T01:53:42.347Z,6.45
2022-08-02T01:56:10.719Z,5.22
2022-08-02T01:58:39.509Z,5.15
2022-08-02T02:01:09.542Z,5.43
2022-08-02T02:03:43.230Z,7.03
2022-08-02T02:06:11.017Z,4.72
2022-08-02T02:08:40.463Z,5.75
2022-08-02T02:12:10.134Z,4.60
2022-08-02T02:13:58.202Z,5.00
2022-08-02T02:16:27.393Z,5.93
2022-08-02T02:18:54.834Z,6.40
2022-08-02T02:21:22.070Z,5.28
2022-08-02T02:23:50.023Z,6.50
2022-08-02T02:26:31.022Z,5.00
2022-08-02T02:29:01.554Z,5.38
2022-08-02T02:31:32.505Z,6.70
2022-08-02T02:34:03.131Z,10.48
2022-08-02T02:36:30.887Z,5.60
2022-08-02T02:39:01.589Z,7.65
2022-08-02T02:41:29.149Z,4.90
2022-08-02T02:43:58.581Z,6.00
2022-08-02T02:46:26.951Z,5.00
2022-08-02T02:48:54.817Z,8.77
2022-08-02T02:51:22.406Z,5.30
2022-08-02T02:54:32.265Z,8.02
2022-08-02T02:56:38.761Z,4.95
2022-08-02T02:59:07.185Z,8.18
2022-08-02T03:01:55.235Z,5.43
2022-08-02T03:04:22.089Z,6.40
2022-08-02T03:06:48.734Z,6.40
2022-08-02T03:09:15.314Z,8.05
2022-08-02T03:11:42.972Z,6.45
2022-08-02T03:14:11.346Z,7.05
2022-08-02T03:16:49.485Z,8.43
2022-08-02T03:19:17.260Z,6.82
2022-08-02T03:21:45.723Z,6.70
2022-08-02T03:24:13.262Z,5.65
2022-08-02T03:26:41.040Z,10.25
2022-08-02T03:29:10.856Z,6.18
2022-08-02T03:31:40.737Z,11.63
2022-08-02T03:34:07.645Z,6.68
2022-08-02T03:36:35.802Z,8.52
2022-08-02T03:39:03.493Z,7.20
2022-08-02T03:41:31.093Z,6.28
2022-08-02T03:43:58.716Z,7.55
2022-08-02T03:46:26.206Z,8.60
2022-08-02T03:48:54.619Z,7.95
2022-08-02T03:51:22.031Z,7.78
2022-08-02T03:53:49.181Z,7.45
2022-08-02T03:56:16.815Z,10.35
2022-08-02T03:58:48.492Z,15.57
2022-08-02T04:01:16.141Z,10.77
2022-08-02T04:03:42.847Z,9.40
2022-08-02T04:06:10.166Z,12.00
2022-08-02T04:08:38.655Z,6.80
2022-08-02T04:11:24.742Z,7.70
2022-08-02T04:13:52.200Z,6.55
2022-08-02T04:16:45.026Z,8.50
2022-08-02T04:19:17.020Z,6.45
2022-08-02T04:21:51.865Z,10.27
2022-08-02T04:24:24.760Z,7.93
2022-08-02T04:26:58.159Z,10.27
2022-08-02T04:29:33.740Z,8.55
2022-08-02T04:32:01.206Z,9.88
2022-08-02T04:34:27.742Z,8.18
2022-08-02T04:36:55.067Z,7.57
2022-08-02T04:39:21.611Z,6.75
2022-08-02T04:41:48.115Z,6.85
2022-08-02T04:44:14.961Z,5.80
2022-08-02T04:46:43.788Z,7.70
2022-08-02T04:49:10.440Z,5.90
2022-08-02T04:51:41.737Z,8.50
2022-08-02T04:54:10.467Z,5.82
2022-08-02T04:56:40.818Z,6.38
2022-08-02T04:59:07.614Z,6.05
2022-08-02T05:01:35.657Z,9.13
2022-08-02T05:04:02.650Z,9.35
2022-08-02T05:06:29.339Z,8.50
2022-08-02T05:08:55.943Z,12.60
2022-08-02T05:11:35.956Z,8.35
2022-08-02T05:14:04.802Z,6.95
2022-08-02T05:16:32.329Z,7.88
2022-08-02T05:19:00.394Z,10.75
2022-08-02T05:21:27.892Z,7.80
2022-08-02T05:23:54.617Z,10.82
2022-08-02T05:26:21.325Z,11.65
2022-08-02T05:28:48.332Z,10.35
2022-08-02T05:31:14.884Z,7.38
2022-08-02T05:33:41.902Z,10.27
2022-08-02T05:36:09.841Z,9.38
2022-08-02T05:38:37.775Z,12.77
2022-08-02T05:41:05.677Z,8.13
2022-08-02T05:43:32.776Z,9.25
2022-08-02T05:45:59.749Z,10.27
2022-08-02T05:48:31.188Z,7.97
2022-08-02T05:51:12.825Z,7.30
2022-08-02T05:53:46.673Z,6.60
2022-08-02T05:56:23.979Z,12.52
2022-08-02T05:59:02.213Z,9.65
2022-08-02T06:01:34.143Z,10.77
2022-08-02T06:04:02.049Z,8.30
2022-08-02T06:06:32.229Z,8.52
2022-08-02T06:09:02.515Z,8.77
2022-08-02T06:12:02.515Z,7.05
2022-08-02T06:14:33.420Z,11.60
2022-08-02T06:17:04.572Z,13.35
2022-08-02T06:19:36.576Z,9.65
2022-08-02T06:22:33.474Z,6.97
2022-08-02T06:25:05.393Z,8.65
2022-08-02T06:27:33.147Z,8.02
2022-08-02T06:30:00.398Z,12.18
2022-08-02T06:32:27.796Z,9.40
2022-08-02T06:34:54.666Z,11.32
2022-08-02T06:37:30.681Z,8.63
2022-08-02T06:40:25.609Z,9.65
2022-08-02T06:43:07.254Z,8.32
2022-08-02T06:45:35.118Z,13.40
2022-08-02T06:48:01.690Z,12.05
2022-08-02T06:50:28.366Z,13.38
2022-08-02T06:52:55.012Z,8.35
2022-08-02T06:55:21.833Z,13.27
2022-08-02T06:57:48.407Z,10.88
2022-08-02T07:00:15.800Z,12.85
2022-08-02T07:02:42.451Z,12.38
2022-08-02T07:05:09.566Z,10.18
2022-08-02T07:07:36.428Z,11.18
2022-08-02T07:10:03.337Z,12.65
2022-08-02T07:12:31.404Z,10.75
2022-08-02T07:14:59.714Z,12.30
2022-08-02T07:17:26.753Z,12.65
2022-08-02T07:19:53.480Z,11.73
2022-08-02T07:22:23.290Z,15.70
2022-08-02T07:24:51.105Z,12.80
2022-08-02T07:27:17.745Z,14.02
2022-08-02T07:29:46.191Z,13.77
2022-08-02T07:32:18.120Z,13.25
2022-08-02T07:34:50.892Z,15.38
2022-08-02T07:37:35.304Z,15.07
2022-08-02T07:40:13.448Z,13.65
2022-08-02T07:42:41.820Z,16.23
2022-08-02T07:45:08.810Z,13.60
2022-08-02T07:47:44.769Z,14.32
2022-08-02T07:50:12.734Z,15.20
2022-08-02T07:52:40.824Z,17.15
2022-08-02T07:55:11.434Z,14.60
2022-08-02T07:57:43.899Z,15.00
2022-08-02T08:00:13.674Z,15.13
2022-08-02T08:02:40.667Z,14.07
2022-08-02T08:05:07.958Z,16.02
2022-08-02T08:07:35.083Z,15.93
2022-08-02T08:10:01.764Z,16.13
2022-08-02T08:12:28.369Z,15.15
2022-08-02T08:14:55.254Z,16.95
2022-08-02T08:17:22.111Z,16.58
2022-08-02T08:19:51.374Z,19.85
2022-08-02T08:22:22.275Z,18.73
2022-08-02T08:24:49.190Z,19.95
2022-08-02T08:27:17.425Z,15.55
2022-08-02T08:29:44.809Z,16.00
2022-08-02T08:32:17.058Z,14.13
2022-08-02T08:34:44.009Z,15.10
2022-08-02T08:37:16.874Z,12.32
2022-08-02T08:39:57.979Z,12.23
2022-08-02T08:42:27.596Z,11.68
2022-08-02T08:44:58.676Z,11.32
2022-08-02T08:47:44.387Z,8.40
2022-08-02T08:50:21.397Z,8.07
2022-08-02T08:52:57.554Z,9.52
2022-08-02T08:55:26.229Z,8.90
2022-08-02T08:57:54.674Z,8.50
2022-08-02T09:00:21.619Z,11.18
2022-08-02T09:02:48.189Z,9.70
2022-08-02T09:05:16.741Z,9.20
2022-08-02T09:07:45.223Z,10.68
2022-08-02T09:10:33.753Z,8.20
2022-08-02T09:13:37.956Z,8.27
2022-08-02T09:16:14.170Z,8.07
2022-08-02T09:18:45.878Z,10.98
2022-08-02T09:21:14.840Z,8.63
2022-08-02T09:23:47.481Z,8.02
2022-08-02T09:26:15.907Z,6.88
2022-08-02T09:28:44.776Z,6.25
2022-08-02T09:31:13.677Z,6.43
2022-08-02T09:33:43.237Z,8.95
2022-08-02T09:36:15.124Z,7.13
2022-08-02T09:38:53.481Z,7.70
2022-08-02T09:41:25.728Z,9.65
2022-08-02T09:44:04.919Z,8.90
2022-08-02T09:46:39.069Z,7.90
2022-08-02T09:49:09.913Z,8.25
2022-08-02T09:51:48.418Z,8.45
2022-08-02T09:54:25.014Z,11.63
2022-08-02T09:56:55.123Z,8.00
2022-08-02T09:59:24.950Z,6.95
2022-08-02T10:02:17.645Z,8.20
2022-08-02T10:04:53.476Z,9.63
2022-08-02T10:09:49.258Z,8.52
2022-08-02T10:12:16.000Z,10.57
2022-08-02T10:14:43.783Z,7.15
2022-08-02T10:17:10.693Z,9.55
2022-08-02T10:20:00.175Z,9.27
2022-08-02T10:22:25.462Z,7.22
2022-08-02T10:24:52.897Z,9.15
2022-08-02T10:27:21.370Z,6.35
2022-08-02T10:29:53.969Z,7.97
2022-08-02T10:32:36.381Z,5.72
2022-08-02T10:35:19.738Z,8.40
2022-08-02T10:38:01.419Z,6.95
2022-08-02T10:40:46.254Z,8.00
2022-08-02T10:43:14.159Z,8.30
2022-08-02T10:45:40.697Z,8.02
2022-08-02T10:48:11.981Z,8.43
2022-08-02T10:50:50.611Z,10.10
2022-08-02T10:53:25.822Z,9.00
2022-08-02T10:55:54.059Z,7.22
2022-08-02T10:58:26.218Z,8.60
2022-08-02T11:00:57.901Z,5.38
2022-08-02T11:03:40.355Z,7.60
2022-08-02T11:06:25.184Z,6.72
2022-08-02T11:09:41.562Z,6.70
2022-08-02T11:12:13.805Z,6.15
2022-08-02T11:14:43.022Z,9.00
2022-08-02T11:17:12.191Z,8.02
2022-08-02T11:20:13.040Z,6.55
2022-08-02T11:22:40.749Z,6.55
2022-08-02T11:25:22.823Z,5.50
2022-08-02T11:27:52.279Z,4.28
2022-08-02T11:32:58.688Z,5.60
2022-08-02T11:35:36.924Z,5.38
2022-08-02T11:38:20.916Z,5.43
2022-08-02T11:40:48.542Z,6.82
2022-08-02T11:43:34.067Z,4.95
2022-08-02T11:46:04.668Z,4.80
2022-08-02T11:48:39.523Z,4.68
2022-08-02T11:51:06.930Z,6.78
2022-08-02T11:53:49.564Z,5.80
2022-08-02T11:56:24.816Z,5.68
2022-08-02T11:59:02.855Z,3.63
2022-08-02T12:01:31.399Z,4.30
2022-08-02T12:04:00.974Z,5.63
2022-08-02T12:06:31.515Z,4.47
2022-08-02T12:09:17.943Z,5.50
2022-08-02T12:11:48.851Z,3.97
2022-08-02T12:14:15.420Z,3.30
2022-08-02T12:17:00.637Z,4.15
2022-08-02T12:19:27.816Z,6.30
2022-08-02T12:22:41.557Z,3.85
2022-08-02T12:25:34.708Z,5.88
2022-08-02T12:28:17.673Z,2.50
2022-08-02T12:30:55.864Z,5.25
2022-08-02T12:33:23.362Z,3.95
2022-08-02T12:35:50.219Z,3.63
2022-08-02T12:38:17.363Z,3.63
2022-08-02T12:40:44.622Z,3.85
2022-08-02T12:43:18.931Z,3.83
2022-08-02T12:45:54.545Z,5.47
2022-08-02T12:49:08.672Z,5.80
2022-08-02T12:51:50.845Z,6.10
2022-08-02T12:54:38.605Z,4.80
2022-08-02T12:57:16.596Z,3.88
2022-08-02T12:59:49.241Z,4.50
2022-08-02T13:02:17.269Z,3.97
2022-08-02T13:04:49.869Z,4.25
2022-08-02T13:07:18.364Z,3.65
2022-08-02T13:09:46.557Z,4.32
2022-08-02T13:12:13.410Z,3.75
2022-08-02T13:14:42.149Z,4.63
2022-08-02T13:17:09.888Z,4.78
2022-08-02T13:19:37.008Z,4.20
2022-08-02T13:22:04.393Z,4.05
2022-08-02T13:24:41.184Z,4.15
2022-08-02T13:27:20.983Z,4.05
2022-08-02T13:29:48.997Z,4.85
2022-08-02T13:32:16.435Z,3.30
2022-08-02T13:34:43.894Z,5.30
2022-08-02T13:37:10.746Z,4.28
2022-08-02T13:39:37.431Z,4.95
2022-08-02T13:42:04.150Z,4.93
2022-08-02T13:44:32.975Z,3.35
2022-08-02T13:46:59.489Z,4.50
2022-08-02T13:49:42.601Z,4.70
2022-08-02T13:52:13.056Z,3.40
2022-08-02T13:54:40.340Z,4.15
2022-08-02T13:57:07.087Z,4.03
2022-08-02T13:59:56.877Z,3.83
2022-08-02T14:02:21.155Z,2.78
2022-08-02T14:04:47.753Z,4.25
2022-08-02T14:07:14.405Z,5.55
2022-08-02T14:09:43.549Z,2.60
2022-08-02T14:12:11.388Z,3.93
2022-08-02T14:14:38.487Z,3.67
2022-08-02T14:17:05.296Z,3.72
2022-08-02T14:19:32.090Z,5.32
2022-08-02T14:22:11.820Z,3.60
2022-08-02T14:24:39.816Z,4.15
2022-08-02T14:27:06.499Z,5.97
2022-08-02T14:29:33.205Z,3.70
2022-08-02T14:31:59.994Z,3.38
2022-08-02T14:34:26.950Z,3.90
2022-08-02T14:36:54.219Z,3.08
2022-08-02T14:39:21.614Z,5.53
2022-08-02T14:41:59.466Z,4.57
2022-08-02T14:44:30.256Z,5.40
2022-08-02T14:46:57.204Z,6.07
2022-08-02T14:49:25.334Z,4.18
2022-08-02T14:51:53.619Z,5.57
2022-08-02T14:54:20.147Z,4.13
2022-08-02T14:56:53.247Z,5.10
2022-08-02T14:59:19.833Z,4.22
2022-08-02T15:01:46.604Z,5.80
2022-08-02T15:04:13.850Z,5.32
2022-08-02T15:06:40.603Z,5.35
2022-08-02T15:09:07.290Z,3.00
2022-08-02T15:11:48.171Z,5.78
2022-08-02T15:14:16.155Z,4.50
2022-08-02T15:16:56.486Z,6.00
2022-08-02T15:19:25.827Z,7.60
2022-08-02T15:22:15.985Z,5.38
2022-08-02T15:24:45.212Z,4.88
2022-08-02T15:27:14.377Z,6.75
2022-08-02T15:29:42.044Z,5.80
2022-08-02T15:32:09.067Z,4.57
2022-08-02T15:34:35.789Z,5.13
2022-08-02T15:37:02.366Z,5.50
2022-08-02T15:39:29.234Z,7.40
2022-08-02T15:41:57.930Z,5.97
2022-08-02T15:44:25.283Z,5.88
2022-08-02T15:46:53.479Z,3.38
2022-08-02T15:49:21.032Z,9.13
2022-08-02T15:51:48.842Z,4.70
2022-08-02T15:54:15.742Z,6.20
2022-08-02T15:56:42.456Z,4.18
2022-08-02T15:59:08.942Z,3.88
2022-08-02T16:01:38.428Z,5.75
2022-08-02T16:04:06.741Z,8.40
2022-08-02T16:06:34.139Z,6.90
2022-08-02T16:09:01.251Z,5.85
2022-08-02T16:11:27.800Z,8.98
2022-08-02T16:13:54.875Z,3.72
2022-08-02T16:16:23.873Z,4.68
2022-08-02T16:18:50.861Z,5.18
2022-08-02T16:21:17.422Z,6.13
2022-08-02T16:24:01.175Z,5.07
2022-08-02T16:26:31.345Z,6.07
2022-08-02T16:28:59.289Z,4.82
2022-08-02T16:31:25.938Z,6.68
2022-08-02T16:33:56.190Z,5.38
2022-08-02T16:36:25.124Z,3.95
2022-08-02T16:38:53.007Z,5.28
2022-08-02T16:41:19.686Z,3.45
2022-08-02T16:43:46.499Z,5.30
2022-08-02T16:46:13.317Z,6.43
2022-08-02T16:48:40.042Z,4.15
2022-08-02T16:51:13.566Z,4.80
2022-08-02T16:53:59.405Z,7.38
2022-08-02T16:56:29.230Z,3.55
2022-08-02T16:58:59.602Z,5.65
2022-08-02T17:02:01.938Z,3.97
2022-08-02T17:04:15.427Z,4.97
2022-08-02T17:06:47.656Z,4.90
2022-08-02T17:10:03.257Z,5.32
2022-08-02T17:12:13.477Z,7.97
2022-08-02T17:14:55.108Z,6.15
2022-08-02T17:17:33.629Z,6.35
2022-08-02T17:20:01.460Z,4.88
2022-08-02T17:22:28.045Z,4.72
2022-08-02T17:24:54.585Z,5.25
2022-08-02T17:27:22.188Z,5.72
2022-08-02T17:29:48.922Z,6.88
2022-08-02T17:32:18.267Z,6.63
2022-08-02T17:37:32.714Z,5.68
2022-08-02T17:39:59.912Z,7.85
2022-08-02T17:42:26.746Z,5.60
2022-08-02T17:44:54.692Z,5.55
2022-08-02T17:47:30.576Z,5.65
2022-08-02T17:49:58.110Z,7.82
2022-08-02T17:52:51.812Z,6.28
2022-08-02T17:55:13.673Z,4.22
2022-08-02T17:57:56.129Z,5.70
2022-08-02T18:00:36.222Z,4.43
2022-08-02T18:03:06.074Z,5.95
2022-08-02T18:05:40.370Z,6.55
2022-08-02T18:08:23.156Z,5.18
2022-08-02T18:11:08.130Z,7.10
2022-08-02T18:13:36.382Z,5.18
2022-08-02T18:16:05.723Z,5.00
2022-08-02T18:18:48.254Z,4.55
2022-08-02T18:21:22.686Z,6.68
2022-08-02T18:23:58.575Z,4.93
2022-08-02T18:26:27.789Z,4.95
2022-08-02T18:28:56.190Z,4.60
2022-08-02T18:31:23.210Z,7.22
2022-08-02T18:33:58.414Z,6.07
2022-08-02T18:36:28.952Z,7.38
2022-08-02T18:38:55.500Z,7.03
2022-08-02T18:41:22.276Z,6.22
2022-08-02T18:43:51.732Z,5.45
2022-08-02T18:46:20.115Z,6.50
2022-08-02T18:48:48.042Z,6.70
2022-08-02T18:51:15.837Z,9.18
2022-08-02T18:53:43.122Z,7.03
2022-08-02T18:56:19.760Z,8.20
2022-08-02T18:58:51.378Z,8.55
2022-08-02T19:01:31.533Z,7.68
2022-08-02T19:04:05.345Z,7.18
2022-08-02T19:06:35.395Z,6.93
2022-08-02T19:09:11.222Z,5.15
2022-08-02T19:11:47.917Z,7.30
2022-08-02T19:14:27.561Z,6.28
2022-08-02T19:16:55.569Z,6.50
2022-08-02T19:19:22.545Z,5.45
2022-08-02T19:22:17.352Z,6.22
2022-08-02T19:24:37.586Z,6.85
2022-08-02T19:27:14.089Z,5.93
2022-08-02T19:29:42.926Z,6.95
2022-08-02T19:32:40.867Z,6.50
2022-08-02T19:35:02.188Z,3.75
2022-08-02T19:37:36.907Z,5.72
2022-08-02T19:40:04.077Z,7.43
2022-08-02T19:42:30.570Z,4.55
2022-08-02T19:45:17.753Z,7.00
2022-08-02T19:47:44.410Z,4.38
2022-08-02T19:50:25.955Z,7.15
2022-08-02T19:52:52.900Z,6.25
2022-08-02T19:56:00.440Z,5.15
2022-08-02T19:58:06.499Z,6.05
2022-08-02T20:00:36.334Z,6.32
2022-08-02T20:03:02.861Z,7.53
2022-08-02T20:05:29.359Z,7.40
2022-08-02T20:07:56.841Z,6.95
2022-08-02T20:10:24.939Z,8.10
2022-08-02T20:13:10.506Z,5.18
2022-08-02T20:15:56.391Z,5.18
2022-08-02T20:18:26.524Z,6.55
2022-08-02T20:20:53.759Z,8.57
2022-08-02T20:23:32.413Z,6.03
2022-08-02T20:26:00.643Z,9.88
2022-08-02T20:28:28.944Z,6.47
2022-08-02T20:30:55.464Z,5.97
2022-08-02T20:33:23.310Z,7.10
2022-08-02T20:35:58.926Z,8.10
2022-08-02T20:38:45.863Z,7.53
2022-08-02T20:41:20.243Z,8.65
2022-08-02T20:43:48.974Z,7.38
2022-08-02T20:46:16.333Z,8.65
2022-08-02T20:48:44.232Z,6.60
2022-08-02T20:51:12.364Z,6.18
2022-08-02T20:53:54.787Z,7.20
2022-08-02T20:56:23.014Z,9.65
2022-08-02T20:58:52.123Z,5.78
2022-08-02T21:01:21.366Z,6.38
2022-08-02T21:03:58.614Z,5.43
2022-08-02T21:06:28.237Z,8.23
2022-08-02T21:08:55.606Z,7.85
2022-08-02T21:11:25.562Z,8.02
2022-08-02T21:14:07.701Z,7.00
2022-08-02T21:16:36.071Z,9.63
2022-08-02T21:19:03.095Z,7.15
2022-08-02T21:21:36.227Z,7.35
2022-08-02T21:24:02.966Z,4.47
2022-08-02T21:26:31.225Z,9.93
2022-08-02T21:29:00.678Z,6.15
2022-08-02T21:31:32.014Z,8.10
2022-08-02T21:34:00.753Z,7.05
2022-08-02T21:36:32.958Z,7.85
2022-08-02T21:39:04.458Z,7.88
2022-08-02T21:41:40.071Z,5.18
2022-08-02T21:44:19.116Z,8.48
2022-08-02T21:46:49.262Z,7.20
2022-08-02T21:49:17.075Z,5.03
2022-08-02T21:51:43.737Z,6.95
2022-08-02T21:54:17.562Z,8.30
2022-08-02T21:56:48.338Z,6.72
2022-08-02T21:59:16.458Z,5.38
2022-08-02T22:02:02.528Z,4.85
2022-08-02T22:04:30.606Z,6.15
2022-08-02T22:06:57.221Z,5.43
2022-08-02T22:09:43.695Z,6.05
2022-08-02T22:12:18.155Z,8.77
2022-08-02T22:14:53.942Z,8.18
2022-08-02T22:17:51.750Z,8.45
2022-08-02T22:20:19.985Z,7.95
2022-08-02T22:22:52.196Z,7.38
2022-08-02T22:25:26.827Z,3.83
2022-08-02T22:28:11.842Z,6.07
2022-08-02T22:30:45.297Z,6.22
2022-08-02T22:33:37.826Z,5.45
2022-08-02T22:36:04.942Z,5.25
2022-08-02T22:38:31.430Z,5.72
2022-08-02T22:40:57.928Z,6.82
2022-08-02T22:43:24.614Z,6.88
2022-08-02T22:45:51.113Z,9.57
2022-08-02T22:48:17.833Z,6.55
2022-08-02T22:50:44.416Z,7.78
2022-08-02T22:53:10.906Z,4.32
2022-08-02T22:55:41.640Z,4.32
2022-08-02T22:58:09.172Z,8.05
2022-08-02T23:00:35.867Z,5.72
2022-08-02T23:03:02.882Z,6.43
2022-08-02T23:05:30.332Z,5.63
2022-08-02T23:07:57.000Z,5.70
2022-08-02T23:10:23.697Z,7.90
2022-08-02T23:12:50.507Z,7.03
2022-08-02T23:15:17.024Z,4.35
2022-08-02T23:18:02.430Z,8.82
2022-08-02T23:20:29.246Z,4.28
2022-08-02T23:22:55.888Z,5.78
2022-08-02T23:25:22.669Z,5.00
2022-08-02T23:27:51.179Z,5.50
2022-08-02T23:30:19.142Z,5.40
2022-08-02T23:32:46.927Z,5.03
2022-08-02T23:35:17.108Z,5.75
2022-08-02T23:37:58.998Z,7.45
2022-08-02T23:40:40.443Z,5.60
2022-08-02T23:43:14.175Z,5.82
2022-08-02T23:45:44.347Z,6.28
2022-08-02T23:48:10.993Z,3.20
2022-08-02T23:50:37.552Z,8.27
2022-08-02T23:53:04.248Z,6.25
2022-08-02T23:55:30.868Z,5.60
2022-08-02T23:57:57.358Z,4.00
